Time;durP1;ratioP1;P1;durP2;ratioP2;P2;SDS_P1;SDS_P2;PMS_P1;PMS_P2;Temp;Humidity;BMP_temperature;BMP_pressure;BME280_temperature;BME280_humidity;BME280_pressure;Samples;Min_cycle;Max_cycle;Signal;HPM_P1;HPM_P2
2022/08/05 00:01:33;;;;;;;0.00;0.00;;;25.80;81.90;226.50;231333.00;;;;5052340;28;20224;-73
2022/08/05 00:04:17;;;;;;;0.00;0.00;;;25.80;81.80;226.50;231333.00;;;;5051230;28;20217;-73
2022/08/05 00:06:46;;;;;;;0.00;0.00;;;25.90;81.80;226.50;231333.00;;;;5052022;28;20190;-73
2022/08/05 00:09:18;;;;;;;0.00;0.00;;;25.70;82.10;226.50;231333.00;;;;5051573;28;20609;-73
2022/08/05 00:11:47;;;;;;;0.00;0.00;;;25.80;81.80;226.50;231333.00;;;;5050809;28;20289;-73
2022/08/05 00:14:24;;;;;;;0.00;0.00;;;25.80;82.00;226.50;231333.00;;;;5050754;28;20230;-73
2022/08/05 00:16:56;;;;;;;0.00;0.00;;;25.80;81.80;226.50;231333.00;;;;5052363;28;20229;-73
2022/08/05 00:19:25;;;;;;;0.00;0.00;;;25.80;81.40;226.50;231333.00;;;;5051740;28;20205;-73
2022/08/05 00:22:01;;;;;;;0.00;0.00;;;25.80;81.80;226.50;231333.00;;;;5051405;28;20308;-73
2022/08/05 00:24:29;;;;;;;0.00;0.00;;;25.80;81.40;226.50;231333.00;;;;5091753;22;20503;-73
2022/08/05 00:26:58;;;;;;;0.00;0.00;;;25.80;81.60;226.50;231333.00;;;;5068911;28;20277;-73
2022/08/05 00:29:28;;;;;;;0.00;0.00;;;25.60;81.90;226.50;231333.00;;;;5071660;28;20218;-73
2022/08/05 00:32:07;;;;;;;0.00;0.00;;;25.50;82.10;226.50;231333.00;;;;5065627;28;20202;-73
2022/08/05 00:34:43;;;;;;;0.00;0.00;;;25.40;82.30;226.50;231333.00;;;;5058877;28;20229;-73
2022/08/05 00:37:31;;;;;;;0.00;0.00;;;25.30;82.00;226.50;231333.00;;;;5068509;28;20229;-73
2022/08/05 00:40:18;;;;;;;0.00;0.00;;;25.20;82.30;226.50;231333.00;;;;5058334;28;20207;-75
2022/08/05 00:42:58;;;;;;;0.00;0.00;;;25.20;82.40;226.50;231333.00;;;;5062287;28;20222;-73
2022/08/05 00:45:28;;;;;;;0.00;0.00;;;25.30;82.20;226.50;231333.00;;;;5047733;28;20214;-75
2022/08/05 00:48:12;;;;;;;0.00;0.00;;;25.10;82.40;226.50;231333.00;;;;5051365;28;20197;-74
2022/08/05 00:50:43;;;;;;;0.00;0.00;;;25.10;82.70;226.50;231333.00;;;;5051654;28;20214;-73
2022/08/05 00:53:14;;;;;;;0.00;0.00;;;25.00;82.70;226.50;231333.00;;;;5051271;28;20305;-72
2022/08/05 00:56:03;;;;;;;0.00;0.00;;;25.00;82.70;226.50;231333.00;;;;5050779;28;20236;-72
2022/08/05 00:58:31;;;;;;;0.00;0.00;;;24.80;83.10;226.50;231333.00;;;;5051278;28;20190;-71
2022/08/05 01:01:00;;;;;;;0.00;0.00;;;24.70;83.10;226.50;231333.00;;;;5048563;28;20209;-72
2022/08/05 01:03:35;;;;;;;0.00;0.00;;;24.70;83.40;226.50;231333.00;;;;5049486;28;20272;-72
2022/08/05 01:06:03;;;;;;;0.00;0.00;;;24.60;83.10;226.50;231333.00;;;;5050591;28;20201;-72
2022/08/05 01:08:32;;;;;;;0.00;0.00;;;24.70;83.40;226.50;231333.00;;;;5051135;28;20262;-72
2022/08/05 01:11:21;;;;;;;0.00;0.00;;;24.60;83.40;226.50;231333.00;;;;5051181;28;20606;-72
2022/08/05 01:14:09;;;;;;;0.00;0.00;;;24.60;83.50;226.50;231333.00;;;;5050619;28;20241;-73
2022/08/05 01:16:54;;;;;;;0.00;0.00;;;24.60;83.10;226.50;231333.00;;;;5051317;28;20197;-73
2022/08/05 01:19:36;;;;;;;0.00;0.00;;;24.60;83.40;226.50;231333.00;;;;5049809;28;20194;-73
2022/08/05 01:22:43;;;;;;;0.00;0.00;;;24.50;83.10;226.50;231333.00;;;;5047791;28;20225;-72
2022/08/05 01:25:57;;;;;;;0.00;0.00;;;24.60;82.90;226.50;231333.00;;;;5050932;28;20198;-72
2022/08/05 01:28:35;;;;;;;0.00;0.00;;;24.60;82.70;226.50;231333.00;;;;5050618;28;20751;-72
2022/08/05 01:31:15;;;;;;;0.00;0.00;;;24.60;82.80;226.50;231333.00;;;;5050865;28;20190;-73
2022/08/05 01:33:52;;;;;;;0.00;0.00;;;24.70;82.60;226.50;231333.00;;;;5050769;28;20220;-72
2022/08/05 01:36:30;;;;;;;0.00;0.00;;;24.70;82.50;226.50;231333.00;;;;5050772;28;20571;-73
2022/08/05 01:39:00;;;;;;;0.00;0.00;;;24.70;82.50;226.50;231333.00;;;;5050827;28;20194;-74
2022/08/05 01:41:35;;;;;;;0.00;0.00;;;24.70;82.50;226.50;231333.00;;;;5050970;28;20214;-73
2022/08/05 01:44:08;;;;;;;0.00;0.00;;;24.70;82.30;226.50;231333.00;;;;5050819;28;20228;-73
2022/08/05 01:46:41;;;;;;;0.00;0.00;;;24.60;82.50;226.50;231333.00;;;;5050821;28;20677;-73
2022/08/05 01:49:21;;;;;;;0.00;0.00;;;24.70;82.60;226.50;231333.00;;;;5050738;28;20224;-72
2022/08/05 01:51:58;;;;;;;0.00;0.00;;;24.70;82.50;226.50;231333.00;;;;5050644;28;20340;-72
2022/08/05 01:54:49;;;;;;;0.00;0.00;;;24.60;82.40;226.50;231333.00;;;;5053762;28;20224;-72
2022/08/05 01:57:26;;;;;;;0.00;0.00;;;24.50;82.70;226.50;231333.00;;;;5052364;28;20203;-72
2022/08/05 02:00:16;;;;;;;0.00;0.00;;;24.40;83.10;226.50;231333.00;;;;5053099;28;20738;-73
2022/08/05 02:02:52;;;;;;;0.00;0.00;;;24.30;83.00;226.50;231333.00;;;;5054250;28;20241;-73
2022/08/05 02:05:30;;;;;;;0.00;0.00;;;24.30;83.10;226.50;231333.00;;;;5054263;28;20209;-73
2022/08/05 02:08:02;;;;;;;0.00;0.00;;;24.20;83.30;226.50;231333.00;;;;5054499;28;20194;-72
2022/08/05 02:10:39;;;;;;;0.00;0.00;;;24.30;83.20;226.50;231333.00;;;;5054573;28;20194;-73
2022/08/05 02:13:15;;;;;;;0.00;0.00;;;24.30;83.50;226.50;231333.00;;;;5054414;28;20308;-73
2022/08/05 02:15:53;;;;;;;0.00;0.00;;;24.20;83.60;226.50;231333.00;;;;5054771;28;20216;-73
2022/08/05 02:18:30;;;;;;;0.00;0.00;;;24.10;83.80;226.50;231333.00;;;;5056220;28;20205;-74
2022/08/05 02:21:11;;;;;;;0.00;0.00;;;24.10;83.90;226.50;231333.00;;;;5055385;28;20280;-73
2022/08/05 02:23:56;;;;;;;0.00;0.00;;;24.00;84.20;226.50;231333.00;;;;5053417;28;20304;-73
2022/08/05 02:26:35;;;;;;;0.00;0.00;;;24.10;84.00;226.50;231333.00;;;;5054088;28;20194;-73
2022/08/05 02:29:06;;;;;;;0.00;0.00;;;24.00;84.10;226.50;231333.00;;;;5053803;28;20210;-73
2022/08/05 02:31:53;;;;;;;0.00;0.00;;;24.00;84.10;226.50;231333.00;;;;5047229;28;20198;-72
2022/08/05 02:34:24;;;;;;;0.00;0.00;;;24.10;84.00;226.50;231333.00;;;;5052156;28;20214;-72
2022/08/05 02:37:01;;;;;;;0.00;0.00;;;24.00;84.10;226.50;231333.00;;;;5053405;28;20190;-71
2022/08/05 02:39:37;;;;;;;0.00;0.00;;;24.10;84.10;226.50;231333.00;;;;5053015;28;20248;-72
2022/08/05 02:42:10;;;;;;;0.00;0.00;;;24.00;84.10;226.50;231333.00;;;;5053909;28;20611;-73
2022/08/05 02:44:54;;;;;;;0.00;0.00;;;24.00;84.10;226.50;231333.00;;;;5053920;28;20202;-73
2022/08/05 02:47:26;;;;;;;0.00;0.00;;;24.10;84.10;226.50;231333.00;;;;5053559;28;20252;-72
2022/08/05 02:50:15;;;;;;;0.00;0.00;;;24.00;84.70;226.50;231333.00;;;;5053273;28;20610;-73
2022/08/05 02:52:47;;;;;;;0.00;0.00;;;24.00;84.40;226.50;231333.00;;;;5052956;28;20725;-73
2022/08/05 02:55:16;;;;;;;0.00;0.00;;;24.00;84.40;226.50;231333.00;;;;5053282;28;20194;-74
2022/08/05 02:58:04;;;;;;;0.00;0.00;;;24.00;84.60;226.50;231333.00;;;;5052701;28;20198;-73
2022/08/05 03:00:42;;;;;;;0.00;0.00;;;23.90;84.60;226.50;231333.00;;;;5045742;28;20198;-75
2022/08/05 03:03:18;;;;;;;0.00;0.00;;;23.90;84.80;226.50;231333.00;;;;5053660;28;20230;-75
2022/08/05 03:05:51;;;;;;;0.00;0.00;;;23.90;85.10;226.50;231333.00;;;;5052204;28;20653;-75
2022/08/05 03:08:42;;;;;;;0.00;0.00;;;23.90;85.10;226.50;231333.00;;;;5050993;28;20202;-74
2022/08/05 03:11:18;;;;;;;0.00;0.00;;;23.90;85.20;226.50;231333.00;;;;5048651;28;20202;-72
2022/08/05 03:14:06;;;;;;;0.00;0.00;;;23.90;85.30;226.50;231333.00;;;;5037311;28;20218;-72
2022/08/05 03:16:35;;;;;;;0.00;0.00;;;23.80;85.30;226.50;231333.00;;;;5045466;28;20195;-72
2022/08/05 03:19:05;;;;;;;0.00;0.00;;;23.80;85.50;226.50;231333.00;;;;5044287;28;20198;-72
2022/08/05 03:21:47;;;;;;;0.00;0.00;;;23.90;85.60;226.50;231333.00;;;;5046111;28;20224;-74
2022/08/05 03:24:18;;;;;;;0.00;0.00;;;23.90;85.50;226.50;231333.00;;;;5052637;28;20218;-74
2022/08/05 03:26:57;;;;;;;0.00;0.00;;;24.00;85.40;226.50;231333.00;;;;5044125;28;20255;-75
2022/08/05 03:29:26;;;;;;;0.00;0.00;;;24.00;85.50;226.50;231333.00;;;;5052741;28;20248;-74
2022/08/05 03:32:15;;;;;;;0.00;0.00;;;24.00;85.50;226.50;231333.00;;;;5052580;28;20562;-75
2022/08/05 03:34:48;;;;;;;0.00;0.00;;;24.00;85.40;226.50;231333.00;;;;5052608;28;20218;-76
2022/08/05 03:37:19;;;;;;;0.00;0.00;;;24.10;85.30;226.50;231333.00;;;;5052969;28;20577;-70
2022/08/05 03:39:57;;;;;;;0.00;0.00;;;24.10;85.40;226.50;231333.00;;;;5052490;28;20242;-70
2022/08/05 03:42:30;;;;;;;0.00;0.00;;;24.10;85.40;23.50;96208.00;;;;5052314;28;20664;-69
2022/08/05 03:45:18;;;;;;;0.00;0.00;;;24.20;85.20;23.50;96229.00;;;;5051774;28;20191;-72
2022/08/05 03:47:50;;;;;;;0.00;0.00;;;24.20;85.40;23.40;96070.00;;;;5051156;28;20194;-72
2022/08/05 03:50:20;;;;;;;0.00;0.00;;;24.10;85.40;23.30;96056.00;;;;5051306;28;20728;-72
2022/08/05 03:53:04;;;;;;;0.00;0.00;;;24.10;85.60;23.30;96113.00;;;;5052335;28;20300;-72
2022/08/05 03:56:00;;;;;;;0.00;0.00;;;24.10;85.70;23.20;96020.00;;;;5049785;28;20252;-73
2022/08/05 03:58:48;;;;;;;0.00;0.00;;;24.00;85.90;23.20;96033.00;;;;5050635;28;20672;-72
2022/08/05 04:01:22;;;;;;;0.00;0.00;;;24.00;86.30;23.20;96018.00;;;;5051062;28;20680;-73
2022/08/05 04:03:54;;;;;;;0.00;0.00;;;24.00;86.90;23.20;96049.00;;;;5051655;28;20229;-73
2022/08/05 04:06:39;;;;;;;0.00;0.00;;;24.10;86.20;23.20;95988.00;;;;5043160;28;20201;-72
2022/08/05 04:09:18;;;;;;;0.00;0.00;;;24.00;86.30;23.20;96006.00;;;;5051150;28;20190;-72
2022/08/05 04:11:53;;;;;;;0.00;0.00;;;24.10;86.40;23.30;96045.00;;;;5052107;28;20190;-72
2022/08/05 04:14:25;;;;;;;0.00;0.00;;;24.20;86.20;226.50;231333.00;;;;5051630;28;20542;-70
2022/08/05 04:16:59;;;;;;;0.00;0.00;;;24.20;86.10;226.50;231333.00;;;;5048691;28;20202;-71
2022/08/05 04:19:30;;;;;;;0.00;0.00;;;24.20;86.20;226.50;231333.00;;;;5034830;28;20203;-71
2022/08/05 04:22:00;;;;;;;0.00;0.00;;;24.20;86.10;226.50;231333.00;;;;5052124;28;20198;-71
2022/08/05 04:24:40;;;;;;;0.00;0.00;;;24.20;86.30;226.50;231333.00;;;;5041098;28;20222;-71
2022/08/05 04:27:12;;;;;;;0.00;0.00;;;24.30;86.80;226.50;231333.00;;;;5046906;28;20206;-71
2022/08/05 04:29:42;;;;;;;0.00;0.00;;;24.30;86.80;226.50;231333.00;;;;5043019;28;20563;-70
2022/08/05 04:32:10;;;;;;;0.00;0.00;;;24.30;86.80;226.50;231333.00;;;;5050668;28;20213;-71
2022/08/05 04:34:39;;;;;;;0.00;0.00;;;24.30;86.60;226.50;231333.00;;;;5050359;28;20210;-71
2022/08/05 04:37:11;;;;;;;0.00;0.00;;;24.30;86.60;226.50;231333.00;;;;5044755;28;20361;-71
2022/08/05 04:39:39;;;;;;;0.00;0.00;;;24.30;87.10;226.50;231333.00;;;;5048601;28;20627;-70
2022/08/05 04:42:09;;;;;;;0.00;0.00;;;24.20;87.10;226.50;231333.00;;;;5054978;28;20277;-71
2022/08/05 04:44:37;;;;;;;0.00;0.00;;;24.20;87.60;226.50;231333.00;;;;5050488;28;20272;-71
2022/08/05 04:47:06;;;;;;;0.00;0.00;;;24.30;86.80;226.50;231333.00;;;;5048859;28;20552;-71
2022/08/05 04:49:38;;;;;;;0.00;0.00;;;24.30;86.70;226.50;231333.00;;;;5050236;28;20233;-70
2022/08/05 04:52:28;;;;;;;0.00;0.00;;;24.40;86.70;226.50;231333.00;;;;5053455;28;20668;-70
2022/08/05 04:55:00;;;;;;;0.00;0.00;;;24.50;86.90;226.50;231333.00;;;;5052663;28;20233;-71
2022/08/05 04:57:45;;;;;;;0.00;0.00;;;24.60;86.80;226.50;231333.00;;;;5046844;28;20285;-72
2022/08/05 05:00:18;;;;;;;0.00;0.00;;;24.60;86.60;226.50;231333.00;;;;5051315;28;20637;-71
2022/08/05 05:02:51;;;;;;;0.00;0.00;;;24.70;86.80;226.50;231333.00;;;;5050270;28;20263;-70
2022/08/05 05:05:19;;;;;;;0.00;0.00;;;24.70;86.80;226.50;231333.00;;;;5049841;28;20232;-71
2022/08/05 05:08:01;;;;;;;0.00;0.00;;;24.80;86.80;226.50;231333.00;;;;5042235;28;20560;-70
2022/08/05 05:10:31;;;;;;;0.00;0.00;;;24.70;86.60;226.50;231333.00;;;;5056343;28;20210;-70
2022/08/05 05:13:01;;;;;;;0.00;0.00;;;24.80;87.10;226.50;231333.00;;;;5048165;28;20210;-70
2022/08/05 05:15:32;;;;;;;0.00;0.00;;;24.70;87.40;226.50;231333.00;;;;5058696;28;20201;-70
2022/08/05 05:18:21;;;;;;;0.00;0.00;;;24.80;87.50;226.50;231333.00;;;;5056273;28;20194;-71
2022/08/05 05:21:00;;;;;;;0.00;0.00;;;24.70;87.90;226.50;231333.00;;;;5047305;28;20770;-70
2022/08/05 05:23:31;;;;;;;0.00;0.00;;;24.70;88.30;226.50;231333.00;;;;5051306;28;20596;-70
2022/08/05 05:26:19;;;;;;;0.00;0.00;;;24.80;88.30;226.50;231333.00;;;;5049787;28;20194;-71
2022/08/05 05:29:00;;;;;;;0.00;0.00;;;24.70;90.50;226.50;231333.00;;;;5053273;28;20204;-71
2022/08/05 05:31:29;;;;;;;0.00;0.00;;;24.70;91.10;226.50;231333.00;;;;5054335;28;20222;-72
2022/08/05 05:33:58;;;;;;;0.00;0.00;;;24.70;91.40;226.50;231333.00;;;;5038501;28;20735;-71
2022/08/05 05:36:30;;;;;;;0.00;0.00;;;24.40;92.20;226.50;231333.00;;;;5051974;28;20733;-71
2022/08/05 05:39:00;;;;;;;0.00;0.00;;;24.40;92.60;226.50;231333.00;;;;5054211;28;20193;-71
2022/08/05 05:41:31;;;;;;;0.00;0.00;;;24.40;92.80;226.50;231333.00;;;;5049451;28;20198;-71
2022/08/05 05:44:07;;;;;;;0.00;0.00;;;24.50;93.10;226.50;231333.00;;;;5054637;28;20224;-72
2022/08/05 05:46:55;;;;;;;0.00;0.00;;;24.50;93.20;226.50;231333.00;;;;5047627;28;20190;-71
2022/08/05 05:49:25;;;;;;;0.00;0.00;;;24.60;94.10;226.50;231333.00;;;;5054409;28;20190;-70
2022/08/05 05:51:53;;;;;;;0.00;0.00;;;24.60;94.20;226.50;231333.00;;;;5054632;28;20198;-70
2022/08/05 05:54:23;;;;;;;0.00;0.00;;;24.50;95.30;226.50;231333.00;;;;5050239;28;20253;-70
2022/08/05 05:57:11;;;;;;;0.00;0.00;;;24.70;96.00;226.50;231333.00;;;;5053581;28;20583;-70
2022/08/05 05:59:46;;;;;;;0.00;0.00;;;24.70;96.30;226.50;231333.00;;;;5054078;28;20545;-70
2022/08/05 06:02:17;;;;;;;0.00;0.00;;;24.70;96.70;226.50;231333.00;;;;5051163;28;20623;-69
2022/08/05 06:05:07;;;;;;;0.00;0.00;;;24.70;97.20;226.50;231333.00;;;;5052211;28;20611;-70
2022/08/05 06:07:45;;;;;;;0.00;0.00;;;24.70;97.40;226.50;231333.00;;;;5053915;28;20202;-70
2022/08/05 06:10:30;;;;;;;0.00;0.00;;;24.70;98.10;226.50;231333.00;;;;5045597;28;20194;-70
2022/08/05 06:13:04;;;;;;;0.00;0.00;;;24.80;98.00;226.50;231333.00;;;;5048828;28;20283;-70
2022/08/05 06:15:32;;;;;;;0.00;0.00;;;24.70;98.40;226.50;231333.00;;;;5053880;28;20723;-70
2022/08/05 06:18:20;;;;;;;0.00;0.00;;;24.80;98.80;226.50;231333.00;;;;5033743;28;20203;-70
2022/08/05 06:20:58;;;;;;;0.00;0.00;;;24.90;99.40;226.50;231333.00;;;;5042374;28;20229;-70
2022/08/05 06:23:26;;;;;;;0.00;0.00;;;25.00;99.50;226.50;231333.00;;;;5035884;28;20234;-72
2022/08/05 06:26:12;;;;;;;0.00;0.00;;;25.00;99.50;226.50;231333.00;;;;5053130;28;20859;-72
2022/08/05 06:28:50;;;;;;;0.00;0.00;;;25.10;99.90;226.50;231333.00;;;;5052340;28;20518;-72
2022/08/05 06:31:18;;;;;;;0.00;0.00;;;25.20;99.90;226.50;231333.00;;;;5045573;28;20190;-72
2022/08/05 06:33:50;;;;;;;0.00;0.00;;;25.30;99.90;226.50;231333.00;;;;5052218;28;20242;-72
2022/08/05 06:36:36;;;;;;;0.00;0.00;;;25.30;99.90;226.50;231333.00;;;;5047431;28;20206;-72
2022/08/05 06:39:24;;;;;;;0.00;0.00;;;25.40;99.90;226.50;231333.00;;;;5053545;28;20244;-72
2022/08/05 06:41:57;;;;;;;0.00;0.00;;;25.20;99.90;226.50;231333.00;;;;5056281;28;20199;-72
2022/08/05 06:44:26;;;;;;;0.00;0.00;;;25.40;99.90;226.50;231333.00;;;;5043690;28;20230;-72
2022/08/05 06:46:54;;;;;;;0.00;0.00;;;25.40;99.90;226.50;231333.00;;;;5052485;28;20657;-72
2022/08/05 06:49:23;;;;;;;0.00;0.00;;;25.50;99.90;226.50;231333.00;;;;5053093;28;20182;-72
2022/08/05 06:52:11;;;;;;;0.00;0.00;;;25.50;99.90;24.90;96438.00;;;;5051555;28;20661;-72
2022/08/05 06:55:00;;;;;;;0.00;0.00;;;25.50;99.90;24.90;96394.00;;;;5052495;28;20190;-72
2022/08/05 06:57:30;;;;;;;0.00;0.00;;;25.60;99.90;25.00;96419.00;;;;5052576;28;20691;-72
2022/08/05 07:00:19;;;;;;;0.00;0.00;;;25.70;99.90;24.90;96370.00;;;;5050667;28;20208;-72
2022/08/05 07:02:49;;;;;;;0.00;0.00;;;25.70;99.90;25.00;96387.00;;;;5053510;28;20244;-73
2022/08/05 07:05:21;;;;;;;0.00;0.00;;;25.70;99.90;25.00;96406.00;;;;5053077;28;20238;-72
2022/08/05 07:08:07;;;;;;;0.00;0.00;;;25.70;99.90;24.90;96358.00;;;;5051383;28;20198;-72
2022/08/05 07:10:39;;;;;;;0.00;0.00;;;25.70;99.90;24.90;96395.00;;;;5053087;28;20268;-72
2022/08/05 07:19:34;;;;;;;0.00;0.00;;;25.50;99.90;24.60;96381.00;;;;5051624;28;20194;-72
2022/08/05 07:22:22;;;;;;;0.00;0.00;;;25.30;99.90;24.70;96362.00;;;;5042702;28;20571;-72
2022/08/05 07:24:58;;;;;;;0.00;0.00;;;25.40;99.90;24.80;96351.00;;;;5052819;28;20409;-72
2022/08/05 07:27:47;;;;;;;0.00;0.00;;;25.50;99.90;24.90;96354.00;;;;5050304;28;20202;-72
2022/08/05 07:30:33;;;;;;;0.00;0.00;;;25.50;99.90;25.10;96370.00;;;;5049306;28;20392;-72
2022/08/05 07:33:08;;;;;;;0.00;0.00;;;25.70;99.90;25.20;96329.00;;;;5044355;28;20214;-72
2022/08/05 07:35:43;;;;;;;0.00;0.00;;;25.80;99.90;25.40;96440.00;;;;5050514;28;20206;-72
2022/08/05 07:38:32;;;;;;;0.00;0.00;;;26.00;99.90;25.10;96409.00;;;;5043633;28;20256;-72
2022/08/05 07:41:15;;;;;;;0.00;0.00;;;25.80;99.90;25.30;96433.00;;;;5064691;28;20698;-72
2022/08/05 07:44:06;;;;;;;0.00;0.00;;;25.90;99.90;25.60;96368.00;;;;5039890;28;20219;-71
2022/08/05 07:46:48;;;;;;;0.00;0.00;;;26.10;99.90;25.80;96409.00;;;;5053140;28;20203;-72
2022/08/05 07:49:18;;;;;;;0.00;0.00;;;26.30;99.50;25.80;96407.00;;;;5048648;28;20690;-72
2022/08/05 07:51:46;;;;;;;0.00;0.00;;;26.40;99.50;25.90;96398.00;;;;5050783;28;20665;-72
2022/08/05 07:54:25;;;;;;;0.00;0.00;;;26.50;99.40;25.60;96422.00;;;;5045921;28;20267;-72
2022/08/05 07:57:01;;;;;;;0.00;0.00;;;26.20;99.30;25.60;96405.00;;;;5052901;28;20629;-72
2022/08/05 07:59:49;;;;;;;0.00;0.00;;;26.30;99.50;25.70;96417.00;;;;5051615;28;20665;-72
2022/08/05 08:02:25;;;;;;;0.00;0.00;;;26.30;99.40;26.00;96424.00;;;;5056937;28;20222;-72
2022/08/05 08:05:00;;;;;;;0.00;0.00;;;26.60;99.20;26.20;96430.00;;;;5058764;28;20272;-72
2022/08/05 08:07:28;;;;;;;0.00;0.00;;;26.80;99.10;26.30;96497.00;;;;5056296;28;20194;-72
2022/08/05 08:10:16;;;;;;;0.00;0.00;;;26.90;98.60;26.40;96476.00;;;;5051199;28;20194;-72
2022/08/05 08:12:47;;;;;;;0.00;0.00;;;27.00;98.50;26.60;96445.00;;;;5051788;28;20273;-75
2022/08/05 08:15:17;;;;;;;0.00;0.00;;;27.10;98.40;26.80;96491.00;;;;5051534;28;20194;-72
2022/08/05 08:18:07;;;;;;;0.00;0.00;;;27.30;98.20;27.00;96459.00;;;;5051306;28;20715;-74
2022/08/05 08:20:41;;;;;;;0.00;0.00;;;27.50;98.00;27.20;96477.00;;;;5046531;28;20194;-72
2022/08/05 08:23:29;;;;;;;0.00;0.00;;;27.70;97.70;27.40;96478.00;;;;5050602;28;20241;-74
2022/08/05 08:26:17;;;;;;;0.00;0.00;;;27.80;97.40;27.60;96478.00;;;;5050483;28;20291;-72
2022/08/05 08:28:57;;;;;;;0.00;0.00;;;28.00;97.00;27.80;96472.00;;;;5050979;28;20208;-71
2022/08/05 08:31:45;;;;;;;0.00;0.00;;;28.20;96.80;27.00;96435.00;;;;5045551;28;20253;-72
2022/08/05 08:34:16;;;;;;;0.00;0.00;;;27.80;96.80;27.00;96451.00;;;;5047993;28;20596;-71
2022/08/05 08:36:56;;;;;;;0.00;0.00;;;27.90;96.80;27.30;96451.00;;;;5053647;28;20210;-70
2022/08/05 08:39:32;;;;;;;0.00;0.00;;;27.90;96.80;27.50;96413.00;;;;5038863;28;20206;-72
2022/08/05 08:42:08;;;;;;;0.00;0.00;;;28.10;96.70;27.80;96412.00;;;;5048583;28;20283;-71
2022/08/05 08:44:58;;;;;;;0.00;0.00;;;28.30;96.30;28.10;96415.00;;;;5050855;28;20206;-71
2022/08/05 08:47:47;;;;;;;0.00;0.00;;;28.60;96.00;28.40;96418.00;;;;5049951;28;20600;-72
2022/08/05 08:50:40;;;;;;;0.00;0.00;;;28.80;95.50;28.50;96436.00;;;;5049912;28;20381;-73
2022/08/05 08:53:36;;;;;;;0.00;0.00;;;29.00;95.00;28.70;96435.00;;;;5052102;28;20826;-72
2022/08/05 08:56:07;;;;;;;0.00;0.00;;;29.10;94.70;28.90;96414.00;;;;5049406;28;20212;-72
2022/08/05 08:58:36;;;;;;;0.00;0.00;;;29.30;94.40;28.70;96436.00;;;;5053182;28;20202;-74
2022/08/05 09:01:12;;;;;;;0.00;0.00;;;29.30;94.00;28.90;96442.00;;;;5055680;28;20561;-73
2022/08/05 09:03:47;;;;;;;0.00;0.00;;;29.50;94.30;28.90;96444.00;;;;5056475;28;20221;-73
2022/08/05 09:06:23;;;;;;;0.00;0.00;;;29.50;94.10;29.20;96454.00;;;;5055871;28;20222;-73
2022/08/05 09:08:59;;;;;;;0.00;0.00;;;29.70;93.80;29.30;96461.00;;;;5058539;28;20197;-74
2022/08/05 09:11:28;;;;;;;0.00;0.00;;;29.80;93.60;29.40;96438.00;;;;5057509;28;20229;-72
2022/08/05 09:14:17;;;;;;;0.00;0.00;;;29.90;93.60;29.60;96426.00;;;;5053979;28;20222;-72
2022/08/05 09:17:08;;;;;;;0.00;0.00;;;30.00;93.30;29.70;96407.00;;;;5057044;28;20211;-73
2022/08/05 09:19:56;;;;;;;0.00;0.00;;;30.20;93.10;29.80;96396.00;;;;5042321;28;20249;-73
2022/08/05 09:23:05;;;;;;;0.00;0.00;;;30.40;92.50;29.80;96463.00;;;;5064126;28;20297;-72
2022/08/05 09:25:37;;;;;;;0.00;0.00;;;30.40;92.30;30.00;96373.00;;;;5051906;28;20257;-73
2022/08/05 09:28:27;;;;;;;0.00;0.00;;;30.50;91.70;30.30;96389.00;;;;5062757;28;20221;-72
2022/08/05 09:31:07;;;;;;;0.00;0.00;;;30.70;91.10;30.40;96392.00;;;;5069769;28;20194;-73
2022/08/05 09:33:58;;;;;;;0.00;0.00;;;30.90;91.00;29.50;96454.00;;;;5060785;28;20249;-73
2022/08/05 09:36:41;;;;;;;0.00;0.00;;;30.50;90.70;29.30;96494.00;;;;5055920;28;20258;-73
2022/08/05 09:39:25;;;;;;;0.00;0.00;;;30.20;91.00;28.90;96439.00;;;;5055699;28;20198;-72
2022/08/05 09:42:15;;;;;;;0.00;0.00;;;29.80;91.30;29.50;96457.00;;;;5047730;28;20199;-73
2022/08/05 09:44:56;;;;;;;0.00;0.00;;;30.10;91.40;29.90;96470.00;;;;5054120;28;20461;-73
2022/08/05 09:47:44;;;;;;;0.00;0.00;;;30.40;92.00;30.00;96366.00;;;;5040918;28;20194;-73
2022/08/05 09:50:34;;;;;;;0.00;0.00;;;30.50;92.30;30.10;96378.00;;;;5051552;28;20673;-73
2022/08/05 09:53:11;;;;;;;0.00;0.00;;;30.60;91.90;29.70;96381.00;;;;5058708;28;20218;-73
2022/08/05 09:55:59;;;;;;;0.00;0.00;;;30.80;91.80;30.70;96449.00;;;;5057377;28;20257;-73
2022/08/05 09:58:31;;;;;;;0.00;0.00;;;31.10;90.70;30.60;96452.00;;;;5056307;28;20209;-72
2022/08/05 10:01:03;;;;;;;0.00;0.00;;;31.10;90.80;31.00;96559.00;;;;5060875;28;20213;-72
2022/08/05 10:03:58;;;;;;;0.00;0.00;;;31.30;90.70;31.30;96456.00;;;;5060326;28;20297;-73
2022/08/05 10:06:28;;;;;;;0.00;0.00;;;31.60;90.00;31.50;96465.00;;;;5059652;28;20210;-73
2022/08/05 10:09:11;;;;;;;0.00;0.00;;;31.80;88.10;31.50;96474.00;;;;5057604;28;20198;-73
2022/08/05 10:12:07;;;;;;;0.00;0.00;;;31.90;88.00;31.10;96447.00;;;;5061399;28;20210;-73
2022/08/05 10:15:16;;;;;;;0.00;0.00;;;31.60;87.50;30.80;96267.00;;;;5052585;28;20197;-72
2022/08/05 10:18:13;;;;;;;0.00;0.00;;;31.50;88.40;31.00;96339.00;;;;5053760;28;20296;-73
2022/08/05 10:20:48;;;;;;;0.00;0.00;;;31.60;87.30;30.90;96283.00;;;;5060562;28;20229;-73
2022/08/05 10:23:19;;;;;;;0.00;0.00;;;31.60;87.30;31.20;96311.00;;;;5056610;28;20230;-73
2022/08/05 10:26:11;;;;;;;0.00;0.00;;;31.70;86.90;31.30;96278.00;;;;5050308;28;20214;-72
2022/08/05 10:28:44;;;;;;;0.00;0.00;;;31.80;87.10;226.50;231333.00;;;;5052637;28;20547;-73
2022/08/05 10:31:15;;;;;;;0.00;0.00;;;31.90;85.60;226.50;231333.00;;;;5057337;28;20202;-72
2022/08/05 10:34:04;;;;;;;0.00;0.00;;;31.60;85.90;226.50;231333.00;;;;5045440;28;20237;-72
2022/08/05 10:36:37;;;;;;;0.00;0.00;;;31.60;86.20;226.50;231333.00;;;;5052454;28;20214;-73
2022/08/05 10:39:10;;;;;;;0.00;0.00;;;31.70;86.10;226.50;231333.00;;;;5062537;28;20198;-74
2022/08/05 10:42:00;;;;;;;0.00;0.00;;;31.80;86.40;226.50;231333.00;;;;5061110;28;20190;-72
2022/08/05 10:44:32;;;;;;;0.00;0.00;;;32.10;86.10;226.50;231333.00;;;;5057420;28;20225;-73
2022/08/05 10:47:11;;;;;;;0.00;0.00;;;32.40;83.90;226.50;231333.00;;;;5058593;28;20217;-73
2022/08/05 10:50:04;;;;;;;0.00;0.00;;;32.40;83.50;226.50;231333.00;;;;5056083;28;20186;-73
2022/08/05 10:52:55;;;;;;;0.00;0.00;;;32.20;83.50;226.50;231333.00;;;;5062095;28;20217;-73
2022/08/05 10:55:27;;;;;;;0.00;0.00;;;31.80;84.30;226.50;231333.00;;;;5055372;28;20185;-72
2022/08/05 10:58:10;;;;;;;0.00;0.00;;;31.30;84.70;226.50;231333.00;;;;5061034;28;20209;-72
2022/08/05 11:00:48;;;;;;;0.00;0.00;;;31.40;85.10;226.50;231333.00;;;;5058978;28;21796;-73
2022/08/05 11:03:28;;;;;;;0.00;0.00;;;31.70;84.20;226.50;231333.00;;;;5074928;28;20222;-73
2022/08/05 11:06:11;;;;;;;0.00;0.00;;;32.10;83.80;226.50;231333.00;;;;5046076;28;20240;-73
2022/08/05 11:09:28;;;;;;;0.00;0.00;;;31.90;83.50;226.50;231333.00;;;;5060029;28;20198;-72
2022/08/05 11:12:45;;;;;;;0.00;0.00;;;31.70;83.80;226.50;231333.00;;;;5044373;28;20235;-72
2022/08/05 11:15:26;;;;;;;0.00;0.00;;;31.80;83.80;226.50;231333.00;;;;5056405;28;20222;-73
2022/08/05 11:18:27;;;;;;;0.00;0.00;;;32.10;83.90;226.50;231333.00;;;;5064065;28;20202;-73
2022/08/05 11:20:57;;;;;;;0.00;0.00;;;32.10;83.10;226.50;231333.00;;;;5065300;28;20198;-73
2022/08/05 11:23:35;;;;;;;0.00;0.00;;;31.60;84.10;226.50;231333.00;;;;5057294;28;20248;-73
2022/08/05 11:26:25;;;;;;;0.00;0.00;;;31.60;84.20;226.50;231333.00;;;;5054841;28;20248;-73
2022/08/05 11:29:01;;;;;;;0.00;0.00;;;31.60;84.20;226.50;231333.00;;;;5055570;28;20256;-73
2022/08/05 11:31:43;;;;;;;0.00;0.00;;;31.80;84.40;226.50;231333.00;;;;5069673;28;20221;-72
2022/08/05 11:34:42;;;;;;;0.00;0.00;;;31.80;84.00;226.50;231333.00;;;;5070598;28;20206;-73
2022/08/05 11:37:59;;;;;;;0.00;0.00;;;31.80;83.80;226.50;231333.00;;;;5048862;28;20651;-72
2022/08/05 11:40:59;;;;;;;0.00;0.00;;;31.90;83.60;226.50;231333.00;;;;5055813;28;20248;-73
2022/08/05 11:43:55;;;;;;;0.00;0.00;;;32.50;82.90;226.50;231333.00;;;;5047252;28;20708;-73